Flag for France

Past Weather in 43°56'57.5"N, 4°48'21.1"E, France — Yesterday and Last 2 Weeks

Currently: 52 °F. Light rain. Passing clouds. (Weather station: Caumont, France). See more current weather

Past Weather in 43°56'57.5"N, 4°48'21.1"E — Graph

°F

43°56'57.5"N, 4°48'21.1"E Temperature Yesterday

Maximum temperature yesterday: 63 °F (at 3:30 pm)
Minimum temperature yesterday: 37 °F (at 2:30 am)
Average temperature yesterday: 49 °F

High & Low Weather Summary for the Past Weeks

 TemperatureHumidityPressure
High68 °F (Feb 14, 5:00 pm)100% (Feb 11, 4:00 am)30.48 "Hg (Feb 11, 4:00 am)
Low30 °F (Feb 12, 7:30 am)42% (Feb 14, 3:00 pm)29.06 "Hg (Feb 10, 7:00 am)
Average51 °F75%29.99 "Hg
* Reported Feb 7 2:00 am — Feb 22 2:30 am, 43°56'57.5"N, 4°48'21.1"E. Weather by CustomWeather, © 2024

Note: Actual official high and low records may vary slightly from our data, if they occured in-between our weather recording intervals... More about our weather records

43°56'57.5"N, 4°48'21.1"E Weather History for the Previous 24 Hours

Scroll right to see more
 ConditionsComfort  
Time TempWeatherWind HumidityBarometerVisibility
2:30 am
Thu, Feb 22
52 °FLight rain. Passing clouds.8 mph88%30.07 "HgN/A
2:00 am52 °FLight rain. Mostly cloudy.2 mph88%30.09 "Hg6 mi
12:30 am52 °FOvercast.2 mph77%30.12 "HgN/A
12:00 am52 °FMostly cloudy.2 mph77%30.12 "HgN/A
11:30 pm
Wed, Feb 21
52 °FOvercast.2 mph82%30.12 "HgN/A
11:00 pm50 °FMostly cloudy.2 mph88%30.12 "HgN/A
10:30 pm50 °FMostly cloudy.5 mph88%30.12 "HgN/A
10:00 pm48 °FOvercast.3 mph87%30.15 "HgN/A
9:30 pm50 °FPassing clouds.7 mph88%30.15 "HgN/A
9:00 pm48 °FPartly cloudy.5 mph82%30.15 "HgN/A
8:30 pm50 °FPassing clouds.2 mph82%30.18 "HgN/A
8:00 pm50 °FClear.7 mph76%30.18 "Hg10 mi
7:00 pm50 °FClear.9 mph76%30.18 "Hg10 mi
6:30 pm54 °FClear.8 mph67%30.18 "Hg10 mi
6:00 pm55 °FSunny.10 mph67%30.15 "Hg10 mi
5:30 pm57 °FSunny.8 mph59%30.15 "Hg10 mi
5:00 pm57 °FSunny.8 mph59%30.15 "Hg10 mi
4:30 pm61 °FSunny.13 mph52%30.15 "Hg10 mi
4:00 pm63 °FPassing clouds.10 mph52%30.15 "HgN/A
3:30 pm63 °FPassing clouds.9 mph56%30.15 "HgN/A
3:00 pm61 °FPassing clouds.5 mph55%30.18 "HgN/A
2:30 pm61 °FSunny.3 mph52%30.21 "Hg10 mi
2:00 pm59 °FSunny.2 mph51%30.21 "Hg10 mi
1:30 pm59 °FSunny.2 mph51%30.21 "Hg10 mi
1:00 pm57 °FPassing clouds.3 mph51%30.24 "HgN/A
12:30 pm57 °FSunny.1 mph55%30.24 "Hg10 mi
12:00 pm55 °FPassing clouds.3 mph55%30.27 "HgN/A
11:30 am54 °FPassing clouds.5 mph58%30.27 "HgN/A
11:00 am52 °FPassing clouds.5 mph67%30.27 "HgN/A
10:30 am52 °FPassing clouds.5 mph62%30.30 "HgN/A
10:00 am50 °FSunny.2 mph71%30.30 "Hg10 mi
9:30 am46 °FSunny.No wind82%30.30 "Hg10 mi
9:00 am43 °FSunny.1 mph87%30.30 "Hg10 mi
8:30 am41 °FSunny.3 mph93%30.27 "Hg10 mi
8:00 am39 °FSunny.2 mph87%30.27 "Hg10 mi
7:30 am37 °FClear.3 mph93%30.27 "Hg10 mi
7:00 am39 °FClear.1 mph87%30.27 "Hg10 mi
6:30 am39 °FClear.2 mph87%30.27 "Hg10 mi
6:00 am41 °FClear.2 mph87%30.27 "Hg10 mi
5:30 am39 °FClear.3 mph93%30.27 "Hg10 mi
5:00 am39 °FClear.2 mph87%30.27 "Hg10 mi
4:30 am39 °FClear.2 mph87%30.27 "Hg10 mi
4:00 am41 °FClear.1 mph81%30.27 "Hg10 mi
3:30 am39 °FClear.2 mph87%30.27 "Hg10 mi
3:00 am37 °FClear.No wind87%30.27 "Hg10 mi
Weather by CustomWeather, © 2024

See weather overview